Time;durP1;ratioP1;P1;durP2;ratioP2;P2;SDS_P1;SDS_P2;PMS_P1;PMS_P2;Temp;Humidity;BMP_temperature;BMP_pressure;BME280_temperature;BME280_humidity;BME280_pressure;Samples;Min_cycle;Max_cycle;Signal;HPM_P1;HPM_P2
2022/12/30 00:00:14;;;;;;;14.27;3.13;;;;;;;8.46;100.00;100761.53;5096334;28;20063;-49
2022/12/30 00:02:40;;;;;;;14.73;2.60;;;;;;;8.69;100.00;100769.47;5118468;28;20039;-52
2022/12/30 00:05:06;;;;;;;12.33;2.47;;;;;;;8.67;100.00;100784.81;5117033;28;20103;-49
2022/12/30 00:07:34;;;;;;;15.82;4.05;;;;;;;8.60;100.00;100794.56;5119488;28;20027;-51
2022/12/30 00:10:04;;;;;;;11.43;2.60;;;;;;;8.64;100.00;100798.50;5116957;28;20036;-51
2022/12/30 00:35:00;;;;;;;16.80;3.97;;;;;;;8.32;100.00;100795.97;5112245;28;20036;-51
2022/12/30 00:37:26;;;;;;;15.32;2.90;;;;;;;8.34;100.00;100806.47;5119896;28;20039;-54
2022/12/30 00:39:52;;;;;;;18.73;3.72;;;;;;;8.31;100.00;100799.66;5113452;28;20123;-54
2022/12/30 00:45:02;;;;;;;18.92;2.85;;;;;;;8.52;100.00;100797.28;5116187;28;20063;-53
2022/12/30 00:47:28;;;;;;;19.42;2.90;;;;;;;8.46;100.00;100793.50;5112955;28;20132;-53
2022/12/30 00:58:05;;;;;;;17.77;2.70;;;;;;;8.37;100.00;100816.75;5113064;28;20067;-51
2022/12/30 01:00:31;;;;;;;16.63;3.00;;;;;;;8.25;100.00;100819.03;5108796;28;20039;-56
2022/12/30 01:02:56;;;;;;;16.47;2.73;;;;;;;8.26;100.00;100811.84;5112768;28;20032;-51
2022/12/30 01:05:22;;;;;;;14.27;3.07;;;;;;;8.41;100.00;100820.69;5115736;28;20061;-52
2022/12/30 01:07:47;;;;;;;12.53;2.37;;;;;;;8.29;100.00;100830.13;5120406;28;20282;-53
2022/12/30 01:10:13;;;;;;;20.60;3.07;;;;;;;8.33;100.00;100834.13;5120075;28;20036;-52
2022/12/30 01:12:39;;;;;;;13.70;2.92;;;;;;;8.47;100.00;100827.16;5106872;28;20024;-53
2022/12/30 01:15:06;;;;;;;11.55;2.80;;;;;;;8.21;100.00;100831.06;5114815;28;20066;-50
2022/12/30 01:17:33;;;;;;;18.27;2.97;;;;;;;8.38;100.00;100829.06;5101103;28;20028;-48
2022/12/30 01:19:59;;;;;;;10.77;3.25;;;;;;;8.36;100.00;100830.25;5117980;28;20040;-54
2022/12/30 01:22:25;;;;;;;9.95;3.53;;;;;;;8.32;100.00;100832.47;5115086;28;20043;-51
2022/12/30 01:24:51;;;;;;;22.00;2.95;;;;;;;8.12;100.00;100819.63;5121836;28;20047;-52
2022/12/30 01:27:16;;;;;;;14.77;3.47;;;;;;;8.21;100.00;100824.88;5112658;28;20043;-52
2022/12/30 01:29:43;;;;;;;12.03;2.83;;;;;;;8.31;100.00;100828.13;5121875;28;20046;-53
2022/12/30 01:32:13;;;;;;;12.30;2.17;;;;;;;8.35;100.00;100817.94;5127135;28;20036;-48
2022/12/30 01:34:39;;;;;;;17.98;3.33;;;;;;;8.23;100.00;100821.03;5122404;28;20064;-51
2022/12/30 01:37:05;;;;;;;17.73;3.05;;;;;;;8.35;100.00;100824.09;5122298;28;20036;-51
2022/12/30 01:39:30;;;;;;;19.25;2.67;;;;;;;8.32;100.00;100838.59;5126432;28;20091;-53
2022/12/30 01:41:56;;;;;;;13.75;2.75;;;;;;;8.29;100.00;100846.97;5121977;28;20035;-51
2022/12/30 01:45:13;;;;;;;13.68;2.88;;;;;;;8.52;100.00;100853.28;5119334;28;20031;-51
2022/12/30 01:48:03;;;;;;;20.67;3.17;;;;;;;8.38;100.00;100850.38;5107313;28;20058;-53
2022/12/30 01:50:45;;;;;;;12.77;3.28;;;;;;;8.39;100.00;100841.38;5120604;28;20096;-50
2022/12/30 01:53:15;;;;;;;15.27;3.00;;;;;;;8.51;100.00;100856.94;5118985;28;20093;-54
2022/12/30 01:55:53;;;;;;;15.40;2.72;;;;;;;8.32;100.00;100853.78;5105605;28;20032;-52
2022/12/30 01:58:27;;;;;;;14.80;2.90;;;;;;;8.23;100.00;100858.34;5120228;28;20024;-53
2022/12/30 02:00:52;;;;;;;21.38;3.60;;;;;;;8.30;100.00;100867.28;5119433;28;20032;-50
2022/12/30 02:03:18;;;;;;;13.35;4.55;;;;;;;8.38;100.00;100874.38;5119330;28;20059;-48
2022/12/30 02:05:46;;;;;;;19.85;6.72;;;;;;;8.56;100.00;100871.41;5117907;28;20035;-50
2022/12/30 02:08:14;;;;;;;19.02;6.45;;;;;;;8.38;100.00;100868.19;5119035;28;20047;-50
2022/12/30 02:10:44;;;;;;;27.10;5.57;;;;;;;8.40;100.00;100860.84;5124345;28;20032;-56
2022/12/30 02:13:14;;;;;;;18.35;5.85;;;;;;;8.39;100.00;100862.69;5120190;28;20092;-56
2022/12/30 02:16:01;;;;;;;18.92;5.30;;;;;;;8.33;100.00;100850.09;5121098;28;20046;-56
2022/12/30 02:18:27;;;;;;;;;;;;;;;8.36;100.00;100840.91;5118292;28;20028;-53
2022/12/30 02:21:11;;;;;;;23.03;7.00;;;;;;;8.34;100.00;100854.44;5120278;28;19954;-54
2022/12/30 02:23:59;;;;;;;17.23;4.80;;;;;;;8.22;100.00;100838.03;5119436;28;20057;-51
2022/12/30 02:27:04;;;;;;;16.88;5.03;;;;;;;8.08;100.00;100844.16;5119320;28;20123;-55
2022/12/30 02:29:53;;;;;;;18.90;3.80;;;;;;;8.31;100.00;100820.16;5120815;28;20031;-52
2022/12/30 02:32:39;;;;;;;15.55;4.05;;;;;;;8.15;100.00;100818.44;5120308;28;20040;-52
2022/12/30 02:35:23;;;;;;;22.60;4.60;;;;;;;8.14;100.00;100814.13;5119241;28;20058;-51
2022/12/30 02:38:17;;;;;;;20.65;4.28;;;;;;;7.99;100.00;100814.91;5119739;28;20040;-53
2022/12/30 02:46:44;;;;;;;31.13;8.60;;;;;;;8.20;100.00;100817.91;5118525;28;20161;-48
2022/12/30 02:49:11;;;;;;;28.63;6.97;;;;;;;8.44;100.00;100806.19;5120346;28;20043;-53
2022/12/30 02:54:24;;;;;;;16.42;3.83;;;;;;;8.15;100.00;100795.31;5120160;28;20053;-52
2022/12/30 02:56:52;;;;;;;25.58;4.70;;;;;;;8.06;100.00;100793.69;5119310;28;20043;-55
2022/12/30 03:05:10;;;;;;;28.55;3.47;;;;;;;8.09;100.00;100809.34;5127235;28;20122;-53
2022/12/30 03:07:55;;;;;;;17.77;3.73;;;;;;;8.20;100.00;100809.91;5124833;28;20040;-49
2022/12/30 03:13:50;;;;;;;25.23;7.82;;;;;;;7.97;100.00;100802.78;5023405;28;20038;-52
2022/12/30 03:16:38;;;;;;;23.67;7.32;;;;;;;8.03;100.00;100810.03;5105923;28;20065;-49
2022/12/30 03:19:09;;;;;;;27.23;4.88;;;;;;;7.96;100.00;100801.97;5117353;28;20027;-51
2022/12/30 03:21:40;;;;;;;18.92;4.80;;;;;;;8.12;100.00;100803.66;5122911;28;20028;-52
2022/12/30 03:27:04;;;;;;;21.00;5.60;;;;;;;7.92;100.00;100810.47;5114062;28;20039;-53
2022/12/30 03:29:40;;;;;;;10.18;3.88;;;;;;;7.97;100.00;100794.78;5118102;28;20048;-53
2022/12/30 03:32:09;;;;;;;16.55;4.45;;;;;;;8.11;100.00;100801.16;5118268;28;20024;-50
2022/12/30 03:34:36;;;;;;;19.55;6.82;;;;;;;8.04;100.00;100809.03;5117916;28;20038;-54
2022/12/30 03:37:10;;;;;;;38.90;6.25;;;;;;;7.95;100.00;100813.59;5120402;28;20039;-51
2022/12/30 03:39:40;;;;;;;25.83;6.88;;;;;;;8.10;100.00;100799.50;5115096;28;20048;-48
2022/12/30 03:42:06;;;;;;;21.52;4.65;;;;;;;8.08;100.00;100809.50;5115639;28;20073;-53
2022/12/30 03:44:33;;;;;;;19.42;5.25;;;;;;;7.75;100.00;100806.13;5121705;28;20034;-52
2022/12/30 03:46:59;;;;;;;22.45;6.18;;;;;;;7.96;100.00;100811.78;5116745;28;20078;-54
2022/12/30 03:49:24;;;;;;;30.07;4.60;;;;;;;7.83;100.00;100797.22;5122522;28;20032;-50
2022/12/30 03:51:50;;;;;;;12.30;2.87;;;;;;;7.94;100.00;100795.97;5123703;28;20039;-52
2022/12/30 03:54:15;;;;;;;15.48;3.50;;;;;;;7.89;100.00;100796.53;5119558;28;20287;-52
2022/12/30 03:56:41;;;;;;;13.67;3.27;;;;;;;7.89;100.00;100801.84;5122919;28;20118;-50
2022/12/30 03:59:06;;;;;;;18.37;2.50;;;;;;;7.97;100.00;100794.78;5120190;28;20278;-50
2022/12/30 04:01:32;;;;;;;10.70;2.87;;;;;;;7.74;100.00;100803.63;5119510;28;20032;-49
2022/12/30 04:03:58;;;;;;;22.83;3.72;;;;;;;7.72;100.00;100792.31;5116799;28;20028;-51
2022/12/30 04:06:24;;;;;;;9.67;2.57;;;;;;;7.83;100.00;100791.06;5122205;28;20047;-52
2022/12/30 04:08:49;;;;;;;14.40;3.10;;;;;;;7.85;100.00;100795.22;5122974;28;20051;-51
2022/12/30 04:11:14;;;;;;;24.10;3.70;;;;;;;7.81;100.00;100806.41;5119664;28;20028;-54
2022/12/30 04:13:40;;;;;;;22.30;3.20;;;;;;;7.78;100.00;100815.56;5116586;28;20036;-53
2022/12/30 04:16:06;;;;;;;22.50;3.03;;;;;;;7.79;100.00;100819.88;5119641;28;20036;-53
2022/12/30 04:18:31;;;;;;;21.98;3.25;;;;;;;7.74;100.00;100817.78;5118822;28;20028;-52
2022/12/30 04:20:56;;;;;;;19.87;3.07;;;;;;;7.63;100.00;100830.66;5114423;28;20043;-48
2022/12/30 04:23:22;;;;;;;27.10;2.83;;;;;;;7.70;100.00;100820.94;5126816;28;20032;-48
2022/12/30 04:25:48;;;;;;;14.98;3.58;;;;;;;7.83;100.00;100815.84;5119087;28;20142;-49
2022/12/30 04:28:13;;;;;;;13.73;3.13;;;;;;;7.65;100.00;100816.16;5118899;28;20054;-55
2022/12/30 04:30:39;;;;;;;15.63;2.93;;;;;;;7.72;100.00;100813.63;5121448;28;20272;-53
2022/12/30 04:33:04;;;;;;;10.80;2.70;;;;;;;7.75;100.00;100813.25;5096043;28;20306;-53
2022/12/30 04:35:30;;;;;;;13.00;2.20;;;;;;;7.38;100.00;100814.81;5118490;28;20032;-52
2022/12/30 04:37:55;;;;;;;20.27;3.30;;;;;;;7.32;100.00;100819.03;5117312;28;20272;-53
2022/12/30 04:40:21;;;;;;;15.17;3.50;;;;;;;7.25;100.00;100808.25;5121449;28;20055;-50
2022/12/30 04:42:46;;;;;;;14.73;2.60;;;;;;;7.44;100.00;100806.16;5121686;28;20268;-55
2022/12/30 04:45:12;;;;;;;17.20;3.27;;;;;;;7.44;100.00;100806.16;5117383;28;20038;-54
2022/12/30 04:47:37;;;;;;;16.05;3.00;;;;;;;7.54;100.00;100804.06;5122395;28;20024;-53
2022/12/30 04:50:04;;;;;;;11.60;2.80;;;;;;;7.35;100.00;100812.50;5113319;28;20032;-52
2022/12/30 04:52:29;;;;;;;12.07;2.42;;;;;;;7.48;100.00;100791.47;5121057;28;20028;-50
2022/12/30 04:54:54;;;;;;;10.23;3.23;;;;;;;7.47;100.00;100811.94;5117700;28;20050;-55
2022/12/30 04:57:20;;;;;;;19.53;2.77;;;;;;;7.49;100.00;100798.47;5121318;28;20091;-49
2022/12/30 04:59:46;;;;;;;12.50;2.87;;;;;;;7.46;100.00;100801.47;5115235;28;20020;-52
2022/12/30 05:02:12;;;;;;;15.33;2.97;;;;;;;7.35;100.00;100802.69;5124218;28;20283;-53
2022/12/30 05:04:38;;;;;;;13.10;2.88;;;;;;;7.41;100.00;100806.50;5125304;28;20034;-52
2022/12/30 05:07:04;;;;;;;17.52;2.53;;;;;;;7.55;100.00;100803.06;5125133;28;20035;-53
2022/12/30 05:09:29;;;;;;;10.45;2.30;;;;;;;7.16;100.00;100799.47;5122686;28;20039;-53
2022/12/30 05:11:54;;;;;;;29.00;3.83;;;;;;;7.06;100.00;100798.03;5122019;28;20032;-54
2022/12/30 05:14:20;;;;;;;14.27;3.00;;;;;;;7.27;100.00;100792.94;5125754;28;20031;-51
2022/12/30 05:16:46;;;;;;;17.05;2.92;;;;;;;7.23;100.00;100798.75;5123305;28;20040;-53
2022/12/30 05:19:11;;;;;;;19.10;3.27;;;;;;;7.24;100.00;100795.94;5125937;28;20062;-52
2022/12/30 05:21:37;;;;;;;17.15;2.72;;;;;;;6.93;100.00;100799.41;5119877;28;20054;-52
2022/12/30 05:26:46;;;;;;;14.95;3.08;;;;;;;6.96;100.00;100784.94;5122909;28;20065;-51
2022/12/30 05:29:12;;;;;;;17.55;2.95;;;;;;;7.05;100.00;100788.38;5120928;28;20388;-52
2022/12/30 05:31:37;;;;;;;10.18;2.95;;;;;;;7.28;100.00;100793.78;5117015;28;20045;-53
2022/12/30 05:34:03;;;;;;;11.83;3.03;;;;;;;6.91;100.00;100793.41;5120352;28;20048;-52
2022/12/30 05:36:28;;;;;;;37.00;3.50;;;;;;;6.86;100.00;100788.63;5124534;28;20095;-52
2022/12/30 05:38:54;;;;;;;16.17;3.00;;;;;;;7.01;100.00;100779.91;5121091;28;20049;-53
2022/12/30 05:41:21;;;;;;;14.83;3.33;;;;;;;7.14;100.00;100768.72;5123180;28;20272;-54
2022/12/30 05:43:48;;;;;;;14.65;3.97;;;;;;;7.12;100.00;100771.56;5119443;28;20031;-51
2022/12/30 05:46:13;;;;;;;26.92;4.38;;;;;;;7.18;100.00;100776.19;5122197;28;20040;-51
2022/12/30 05:48:39;;;;;;;21.60;4.30;;;;;;;7.34;100.00;100779.75;5121267;28;20039;-55
2022/12/30 05:51:04;;;;;;;17.00;4.60;;;;;;;7.18;100.00;100776.19;5119835;28;20043;-55
2022/12/30 05:53:31;;;;;;;18.07;4.03;;;;;;;7.20;100.00;100776.03;5126009;28;20043;-54
2022/12/30 05:55:58;;;;;;;14.20;4.82;;;;;;;7.14;100.00;100779.34;5118664;28;20032;-53
2022/12/30 05:58:25;;;;;;;25.30;4.03;;;;;;;7.32;100.00;100771.94;5124071;28;20055;-54
2022/12/30 06:00:51;;;;;;;17.80;3.10;;;;;;;7.26;100.00;100772.66;5117750;28;20100;-53
2022/12/30 06:03:16;;;;;;;23.93;4.17;;;;;;;7.26;100.00;100779.78;5121954;28;20051;-56
2022/12/30 06:05:42;;;;;;;31.27;3.83;;;;;;;7.12;100.00;100776.03;5123487;28;20028;-54
2022/12/30 06:08:09;;;;;;;15.23;4.13;;;;;;;7.16;100.00;100764.06;5124142;28;20050;-53
2022/12/30 06:10:35;;;;;;;21.60;4.40;;;;;;;7.17;100.00;100763.88;5119110;28;20057;-51
2022/12/30 06:13:01;;;;;;;19.95;3.95;;;;;;;7.18;100.00;100754.09;5118216;28;20028;-52
2022/12/30 06:15:27;;;;;;;19.80;4.30;;;;;;;7.23;100.00;100765.03;5124374;28;20039;-50
2022/12/30 06:17:52;;;;;;;19.20;3.50;;;;;;;7.16;100.00;100753.44;5119594;28;20020;-51
2022/12/30 06:20:17;;;;;;;18.03;3.83;;;;;;;7.26;100.00;100762.00;5119144;28;20043;-52
2022/12/30 06:22:43;;;;;;;15.52;4.03;;;;;;;7.23;100.00;100761.53;5125909;28;20076;-49
2022/12/30 06:25:09;;;;;;;21.70;4.13;;;;;;;7.33;100.00;100756.81;5122422;28;20043;-53
2022/12/30 06:27:36;;;;;;;23.00;4.30;;;;;;;7.15;100.00;100759.72;5119014;28;20260;-52
2022/12/30 06:30:03;;;;;;;12.52;3.88;;;;;;;7.08;100.00;100750.81;5116674;28;20024;-52
2022/12/30 06:32:31;;;;;;;20.80;3.90;;;;;;;7.24;100.00;100742.75;5123497;28;20134;-53
2022/12/30 06:34:57;;;;;;;25.83;5.35;;;;;;;7.26;100.00;100753.19;5121020;28;20032;-50
2022/12/30 06:37:23;;;;;;;13.90;3.85;;;;;;;7.39;100.00;100747.31;5120410;28;20028;-51
2022/12/30 06:39:48;;;;;;;21.13;3.27;;;;;;;7.27;100.00;100737.06;5124951;28;20036;-51
2022/12/30 06:42:14;;;;;;;18.13;3.97;;;;;;;7.33;100.00;100730.22;5116924;28;20065;-53
2022/12/30 06:44:39;;;;;;;21.00;3.27;;;;;;;7.31;100.00;100738.38;5123408;28;20032;-54
2022/12/30 06:47:04;;;;;;;29.17;4.90;;;;;;;7.18;100.00;100725.66;5118361;28;20344;-53
2022/12/30 06:49:30;;;;;;;13.00;3.53;;;;;;;7.06;100.00;100720.91;5124901;28;20044;-55
2022/12/30 06:51:56;;;;;;;34.53;4.13;;;;;;;7.30;100.00;100725.25;5122927;28;20031;-50
2022/12/30 06:54:21;;;;;;;17.50;3.27;;;;;;;7.35;100.00;100717.56;5123010;28;20043;-52
2022/12/30 06:56:47;;;;;;;23.27;2.90;;;;;;;7.21;100.00;100705.00;5127691;28;20032;-53
2022/12/30 06:59:12;;;;;;;18.77;3.77;;;;;;;7.32;100.00;100708.09;5117452;28;20296;-50
2022/12/30 07:01:38;;;;;;;13.97;3.00;;;;;;;7.21;100.00;100715.66;5115650;28;20035;-53
2022/12/30 07:04:03;;;;;;;10.70;3.90;;;;;;;7.20;100.00;100698.88;5120280;28;20024;-52
2022/12/30 07:06:29;;;;;;;17.63;3.07;;;;;;;7.12;100.00;100704.25;5125473;28;20043;-53
2022/12/30 07:08:54;;;;;;;12.83;3.57;;;;;;;7.14;100.00;100699.56;5117477;28;20028;-53
2022/12/30 07:11:20;;;;;;;15.52;3.22;;;;;;;7.09;100.00;100683.31;5120091;28;20091;-52
2022/12/30 07:13:45;;;;;;;21.00;4.50;;;;;;;7.05;100.00;100685.53;5121308;28;20035;-50
2022/12/30 07:16:11;;;;;;;19.40;3.43;;;;;;;7.08;100.00;100694.97;5128002;28;20032;-52
2022/12/30 07:18:36;;;;;;;16.25;3.22;;;;;;;7.22;100.00;100682.72;5117867;28;20039;-55
2022/12/30 07:21:02;;;;;;;13.27;3.33;;;;;;;7.19;100.00;100683.94;5119973;28;20043;-50
2022/12/30 07:23:28;;;;;;;19.02;3.38;;;;;;;7.17;100.00;100672.63;5120152;28;20034;-54
2022/12/30 07:25:54;;;;;;;18.15;3.45;;;;;;;6.96;100.00;100679.41;5119785;28;20035;-55
2022/12/30 07:28:20;;;;;;;26.37;4.50;;;;;;;6.86;100.00;100681.47;5122088;28;20051;-55
2022/12/30 07:30:45;;;;;;;19.67;3.87;;;;;;;6.94;100.00;100686.75;5119084;28;20028;-55
2022/12/30 07:33:11;;;;;;;14.33;3.43;;;;;;;7.11;100.00;100676.00;5122956;28;20352;-53
2022/12/30 07:35:36;;;;;;;14.73;3.58;;;;;;;7.15;100.00;100677.28;5119616;28;20036;-50
2022/12/30 07:38:02;;;;;;;16.17;3.53;;;;;;;7.06;100.00;100679.19;5119984;28;20035;-49
2022/12/30 07:40:27;;;;;;;16.37;4.17;;;;;;;7.11;100.00;100666.19;5122838;28;20359;-53
2022/12/30 07:42:53;;;;;;;21.20;3.40;;;;;;;7.06;100.00;100670.38;5120186;28;20032;-52
2022/12/30 07:45:18;;;;;;;20.13;3.10;;;;;;;7.07;100.00;100653.41;5117381;28;20028;-56
2022/12/30 07:47:44;;;;;;;18.47;3.03;;;;;;;7.06;100.00;100665.06;5116633;28;20332;-51
2022/12/30 07:50:11;;;;;;;20.40;3.58;;;;;;;7.06;100.00;100646.44;5117592;28;20023;-50
2022/12/30 07:52:37;;;;;;;33.13;4.97;;;;;;;7.01;100.00;100642.50;5122165;28;20066;-52
2022/12/30 07:55:02;;;;;;;14.25;3.40;;;;;;;7.11;100.00;100628.13;5119399;28;20097;-50
2022/12/30 07:57:28;;;;;;;20.05;3.40;;;;;;;7.26;100.00;100629.00;5119458;28;20032;-53
2022/12/30 07:59:54;;;;;;;25.73;4.60;;;;;;;7.14;100.00;100635.75;5119117;28;20035;-53
2022/12/30 08:02:20;;;;;;;15.73;2.92;;;;;;;7.10;100.00;100627.31;5118199;28;20303;-52
2022/12/30 08:04:46;;;;;;;21.15;3.85;;;;;;;7.24;100.00;100612.41;5116665;28;20039;-51
2022/12/30 08:07:11;;;;;;;18.47;3.40;;;;;;;7.18;100.00;100615.78;5122898;28;20044;-47
2022/12/30 08:09:37;;;;;;;21.63;3.87;;;;;;;7.29;100.00;100614.53;5121861;28;20032;-54
2022/12/30 08:12:03;;;;;;;12.38;3.85;;;;;;;7.22;100.00;100608.25;5123727;28;20028;-52
2022/12/30 08:14:29;;;;;;;14.13;3.70;;;;;;;7.23;100.00;100624.06;5118216;28;20046;-48
2022/12/30 08:16:54;;;;;;;18.40;3.70;;;;;;;7.43;100.00;100612.91;5116209;28;20036;-52
2022/12/30 08:19:20;;;;;;;20.07;4.33;;;;;;;7.49;100.00;100606.03;5118392;28;20041;-49
2022/12/30 08:21:45;;;;;;;8.57;3.63;;;;;;;7.41;100.00;100609.59;5118798;28;20294;-51
2022/12/30 08:24:11;;;;;;;25.40;4.43;;;;;;;7.51;100.00;100599.53;5120019;28;20032;-54
2022/12/30 08:26:36;;;;;;;14.15;3.90;;;;;;;7.46;100.00;100597.41;5129018;28;20035;-48
2022/12/30 08:29:02;;;;;;;12.80;2.83;;;;;;;7.54;100.00;100588.50;5124644;28;20044;-52
2022/12/30 08:31:29;;;;;;;12.63;3.63;;;;;;;7.40;100.00;100576.84;5120201;28;20040;-48
2022/12/30 08:33:55;;;;;;;24.45;3.20;;;;;;;7.43;100.00;100580.97;5116190;28;20287;-54
2022/12/30 08:36:24;;;;;;;15.75;4.22;;;;;;;7.59;100.00;100559.50;5118081;28;20032;-48
2022/12/30 08:38:54;;;;;;;17.35;4.05;;;;;;;7.45;100.00;100557.69;5117159;28;20040;-53
2022/12/30 08:41:24;;;;;;;23.15;3.97;;;;;;;7.62;100.00;100546.88;5119606;28;20024;-53
2022/12/30 08:43:51;;;;;;;19.60;4.13;;;;;;;7.68;100.00;100538.16;5121033;28;20040;-51
2022/12/30 08:46:18;;;;;;;10.85;3.25;;;;;;;7.54;100.00;100529.97;5121589;28;20055;-51
2022/12/30 08:48:45;;;;;;;17.45;3.35;;;;;;;7.67;100.00;100539.16;5123373;28;20031;-50
2022/12/30 08:51:11;;;;;;;25.58;4.03;;;;;;;7.59;100.00;100553.38;5119941;28;20040;-52
2022/12/30 08:53:37;;;;;;;13.20;4.70;;;;;;;7.73;100.00;100544.59;5120104;28;20032;-53
2022/12/30 08:56:13;;;;;;;11.45;2.90;;;;;;;8.02;100.00;100540.25;5119526;28;20036;-51
2022/12/30 08:58:39;;;;;;;10.30;2.95;;;;;;;7.94;100.00;100535.00;5116410;28;20028;-53
2022/12/30 09:01:09;;;;;;;10.87;3.00;;;;;;;7.97;100.00;100534.66;5118902;28;20058;-50
2022/12/30 09:03:36;;;;;;;10.00;3.28;;;;;;;7.85;100.00;100528.97;5123138;28;20039;-51
2022/12/30 09:06:03;;;;;;;10.10;3.28;;;;;;;7.84;100.00;100529.97;5113588;28;20066;-52
2022/12/30 09:08:28;;;;;;;17.23;3.13;;;;;;;8.01;100.00;100533.25;5094870;28;20040;-48
2022/12/30 09:10:58;;;;;;;12.93;2.60;;;;;;;8.32;100.00;100537.50;5120044;28;20039;-51
2022/12/30 09:13:23;;;;;;;11.13;3.38;;;;;;;8.16;100.00;100549.22;5122709;28;20044;-53
2022/12/30 09:15:49;;;;;;;13.90;2.90;;;;;;;8.32;100.00;100526.03;5121128;28;20099;-51
2022/12/30 09:18:14;;;;;;;17.37;3.60;;;;;;;8.41;100.00;100527.56;5122721;28;20067;-51
2022/12/30 09:20:40;;;;;;;7.70;2.23;;;;;;;8.46;100.00;100511.00;5118778;28;20272;-53
2022/12/30 09:23:05;;;;;;;14.53;3.03;;;;;;;8.51;100.00;100519.28;5115731;28;20128;-48
2022/12/30 09:25:31;;;;;;;15.93;2.95;;;;;;;8.62;100.00;100488.66;5120900;28;20095;-53
2022/12/30 09:27:56;;;;;;;10.80;2.60;;;;;;;8.57;100.00;100501.72;5120877;28;20062;-49
2022/12/30 09:30:22;;;;;;;10.18;2.70;;;;;;;8.79;100.00;100491.84;5119816;28;20127;-50
2022/12/30 09:32:47;;;;;;;9.00;2.53;;;;;;;8.91;100.00;100492.16;5119684;28;20056;-51
2022/12/30 09:35:13;;;;;;;7.90;2.30;;;;;;;8.95;100.00;100504.09;5119172;28;20041;-48
2022/12/30 09:37:39;;;;;;;13.30;2.70;;;;;;;9.18;100.00;100484.34;5120599;28;20400;-53
2022/12/30 09:40:04;;;;;;;4.63;2.00;;;;;;;8.93;100.00;100505.31;5119147;28;20051;-51
2022/12/30 09:45:34;;;;;;;8.65;2.63;;;;;;;8.94;100.00;100502.44;5125584;28;20032;-49
2022/12/30 09:48:05;;;;;;;9.57;2.58;;;;;;;9.02;100.00;100467.66;5113021;28;20044;-52
2022/12/30 09:50:40;;;;;;;10.57;2.13;;;;;;;9.25;100.00;100471.06;5121702;28;20097;-50
2022/12/30 09:53:26;;;;;;;18.13;2.30;;;;;;;9.26;100.00;100452.19;5120081;28;20090;-49
2022/12/30 09:55:56;;;;;;;6.88;2.20;;;;;;;9.37;100.00;100460.66;5118152;28;20276;-52
2022/12/30 09:58:31;;;;;;;6.53;2.03;;;;;;;9.47;100.00;100466.47;5125965;28;20099;-53
2022/12/30 10:01:05;;;;;;;7.10;1.40;;;;;;;9.43;100.00;100451.84;5101253;28;20048;-55
2022/12/30 10:03:31;;;;;;;10.65;3.00;;;;;;;9.44;100.00;100440.16;5121776;28;20042;-53
2022/12/30 10:06:16;;;;;;;5.60;2.10;;;;;;;9.54;100.00;100437.97;5119433;28;20032;-54
2022/12/30 10:09:19;;;;;;;4.90;1.85;;;;;;;9.61;100.00;100438.00;5117217;28;20095;-51
2022/12/30 10:12:23;;;;;;;10.77;3.27;;;;;;;9.58;100.00;100428.53;5120506;28;20038;-52
2022/12/30 10:14:57;;;;;;;6.80;1.70;;;;;;;9.74;100.00;100410.53;5123135;28;20276;-53
2022/12/30 10:18:07;;;;;;;8.37;1.60;;;;;;;9.88;100.00;100409.53;5122843;28;20288;-53
2022/12/30 10:20:58;;;;;;;5.60;1.40;;;;;;;9.96;100.00;100407.72;5120851;28;20253;-52
2022/12/30 10:23:34;;;;;;;10.60;1.73;;;;;;;9.88;100.00;100409.53;5120422;28;20282;-51
2022/12/30 10:26:13;;;;;;;3.97;1.70;;;;;;;9.90;100.00;100391.44;5117754;28;20269;-52
2022/12/30 10:28:48;;;;;;;9.50;1.27;;;;;;;9.94;100.00;100396.41;5116474;28;20265;-53
2022/12/30 10:31:20;;;;;;;8.30;1.43;;;;;;;9.89;100.00;100384.47;5119025;28;20268;-52
2022/12/30 10:33:51;;;;;;;6.37;1.60;;;;;;;9.82;100.00;100362.25;5120137;28;20277;-49
2022/12/30 10:36:26;;;;;;;6.00;1.53;;;;;;;9.93;100.00;100352.03;5120016;28;20801;-53
2022/12/30 10:38:58;;;;;;;5.33;1.60;;;;;;;9.95;100.00;100368.69;5122496;28;20291;-53
2022/12/30 10:41:40;;;;;;;14.70;1.70;;;;;;;9.95;100.00;100337.44;5120353;28;20276;-52
2022/12/30 10:44:24;;;;;;;7.50;1.90;;;;;;;10.03;100.00;100331.06;5115500;28;20261;-50
2022/12/30 10:47:20;;;;;;;9.93;1.40;;;;;;;9.90;100.00;100314.00;5116702;28;20271;-50
2022/12/30 10:50:06;;;;;;;4.50;1.70;;;;;;;9.98;100.00;100302.28;5118957;28;20279;-51
2022/12/30 10:52:32;;;;;;;8.88;1.85;;;;;;;9.99;100.00;100295.13;5096388;28;20279;-53
2022/12/30 10:54:58;;;;;;;7.30;1.80;;;;;;;9.90;100.00;100299.81;5118778;28;20048;-54
2022/12/30 10:57:31;;;;;;;9.07;1.70;;;;;;;9.94;100.00;100285.03;5118497;28;20073;-55
2022/12/30 10:59:57;;;;;;;7.43;2.90;;;;;;;10.07;100.00;100254.81;5118126;28;20020;-51
2022/12/30 11:02:35;;;;;;;8.18;1.45;;;;;;;10.04;100.00;100264.09;5113914;28;20276;-51
2022/12/30 11:05:02;;;;;;;6.87;1.80;;;;;;;9.92;100.00;100249.69;5114907;28;20027;-54
2022/12/30 11:07:27;;;;;;;5.37;1.80;;;;;;;10.01;100.00;100251.13;5114131;28;20268;-52
2022/12/30 11:09:53;;;;;;;11.13;2.38;;;;;;;10.05;100.00;100240.84;5115092;28;20280;-52
2022/12/30 11:15:22;;;;;;;9.03;1.77;;;;;;;10.05;100.00;100235.50;5114893;28;20050;-50
2022/12/30 11:17:52;;;;;;;9.50;1.43;;;;;;;9.97;100.00;100211.69;5116768;28;20275;-51
2022/12/30 11:20:34;;;;;;;12.90;1.77;;;;;;;10.04;100.00;100233.88;5116004;28;20304;-49
2022/12/30 11:23:02;;;;;;;5.27;1.60;;;;;;;10.05;100.00;100211.47;5115916;28;20283;-51
2022/12/30 11:25:37;;;;;;;10.60;1.80;;;;;;;10.25;100.00;100194.59;5115302;28;20299;-51
2022/12/30 11:28:06;;;;;;;3.77;1.60;;;;;;;10.27;100.00;100213.91;5112686;28;20256;-52
2022/12/30 11:31:08;;;;;;;6.20;1.77;;;;;;;10.25;100.00;100166.00;5119149;28;20260;-53
2022/12/30 11:33:37;;;;;;;3.17;1.20;;;;;;;10.31;100.00;100159.00;5114424;28;20284;-50
2022/12/30 11:36:27;;;;;;;8.10;2.40;;;;;;;10.26;100.00;100150.78;5113636;28;20261;-51
2022/12/30 11:38:56;;;;;;;6.97;1.60;;;;;;;10.34;100.00;100147.88;5111443;28;20280;-55
2022/12/30 11:41:27;;;;;;;9.43;2.10;;;;;;;10.32;100.00;100142.75;5115759;28;20271;-49
2022/12/30 11:43:56;;;;;;;6.43;1.70;;;;;;;10.37;100.00;100115.38;5122047;28;20271;-53
2022/12/30 11:46:25;;;;;;;5.37;1.40;;;;;;;10.45;100.00;100125.88;5118733;28;20272;-52
2022/12/30 11:48:57;;;;;;;10.10;1.70;;;;;;;10.39;100.00;100123.19;5115543;28;20260;-52
2022/12/30 11:51:54;;;;;;;9.50;2.40;;;;;;;10.43;100.00;100119.09;5108316;28;20275;-54
2022/12/30 11:54:26;;;;;;;8.50;1.30;;;;;;;10.52;100.00;100100.97;5102925;28;20280;-51
2022/12/30 11:56:54;;;;;;;6.27;1.63;;;;;;;10.50;100.00;100101.19;5113986;28;20276;-52
2022/12/30 11:59:24;;;;;;;6.63;1.50;;;;;;;10.46;100.00;100076.72;5113086;28;20406;-54
2022/12/30 12:01:59;;;;;;;5.33;1.23;;;;;;;10.56;100.00;100070.09;5119125;28;20265;-49
2022/12/30 12:04:39;;;;;;;11.83;2.53;;;;;;;10.64;100.00;100066.34;5117803;28;20257;-50
2022/12/30 12:07:19;;;;;;;10.40;1.47;;;;;;;10.61;100.00;100049.69;5116051;28;20284;-49
2022/12/30 12:10:04;;;;;;;6.60;1.53;;;;;;;10.67;100.00;100042.69;5097834;28;20310;-50
2022/12/30 12:12:47;;;;;;;9.63;1.63;;;;;;;10.64;100.00;100016.38;5114687;28;20267;-50
2022/12/30 12:15:27;;;;;;;9.73;2.00;;;;;;;10.80;100.00;100017.69;5113302;28;20279;-52
2022/12/30 12:17:59;;;;;;;6.87;1.80;;;;;;;10.82;100.00;99994.22;5117785;28;20275;-52
2022/12/30 12:20:38;;;;;;;6.23;1.57;;;;;;;10.78;100.00;100001.06;5115107;28;20267;-50
2022/12/30 12:23:41;;;;;;;7.33;1.40;;;;;;;10.89;100.00;99983.47;5113446;28;20349;-52
2022/12/30 12:26:15;;;;;;;12.37;2.13;;;;;;;10.71;100.00;99982.38;5114614;28;20276;-54
2022/12/30 12:28:44;;;;;;;8.73;1.27;;;;;;;10.69;100.00;99983.63;5115840;28;20369;-50
2022/12/30 12:31:25;;;;;;;5.80;1.50;;;;;;;10.84;100.00;99968.09;5115175;28;20304;-49
2022/12/30 12:34:15;;;;;;;16.57;2.53;;;;;;;10.80;100.00;99964.22;5111252;28;20312;-51